createdAt,value
2023-05-09T00:00:49.232Z,4.30
2023-05-09T00:03:17.005Z,4.10
2023-05-09T00:05:44.999Z,4.37
2023-05-09T00:08:14.604Z,4.47
2023-05-09T00:10:42.518Z,4.17
2023-05-09T00:13:10.962Z,4.30
2023-05-09T00:15:40.034Z,4.33
2023-05-09T00:18:08.220Z,4.27
2023-05-09T00:20:36.165Z,4.50
2023-05-09T00:23:04.576Z,4.60
2023-05-09T00:25:34.256Z,4.60
2023-05-09T00:28:02.593Z,4.60
2023-05-09T00:30:30.727Z,4.47
2023-05-09T00:32:58.871Z,4.30
2023-05-09T00:35:29.135Z,4.00
2023-05-09T00:37:56.982Z,4.57
2023-05-09T00:40:24.712Z,4.90
2023-05-09T00:42:56.003Z,4.67
2023-05-09T00:45:25.036Z,4.50
2023-05-09T00:47:54.097Z,4.80
2023-05-09T00:50:22.179Z,4.40
2023-05-09T00:52:50.107Z,4.30
2023-05-09T00:55:18.604Z,4.73
2023-05-09T00:57:46.923Z,4.50
2023-05-09T01:00:18.963Z,4.50
2023-05-09T01:02:50.631Z,4.60
2023-05-09T01:05:18.727Z,4.57
2023-05-09T01:07:52.157Z,5.13
2023-05-09T01:10:26.841Z,4.70
2023-05-09T01:13:00.009Z,4.43
2023-05-09T01:15:35.564Z,4.30
2023-05-09T01:18:10.089Z,4.40
2023-05-09T01:20:40.715Z,4.17
2023-05-09T01:23:34.453Z,4.10
2023-05-09T01:26:05.916Z,4.23
2023-05-09T01:28:38.943Z,4.40
2023-05-09T01:31:10.543Z,4.40
2023-05-09T01:33:43.794Z,4.10
2023-05-09T01:36:16.364Z,4.20
2023-05-09T01:38:45.538Z,4.03
2023-05-09T01:41:15.975Z,4.77
2023-05-09T01:43:46.044Z,4.00
2023-05-09T01:46:17.741Z,3.63
2023-05-09T01:48:45.956Z,3.77
2023-05-09T01:51:16.772Z,4.10
2023-05-09T01:53:45.925Z,3.90
2023-05-09T01:56:14.501Z,4.00
2023-05-09T01:58:43.446Z,4.47
2023-05-09T02:01:12.052Z,3.47
2023-05-09T02:03:41.966Z,3.70
2023-05-09T02:06:11.201Z,3.57
2023-05-09T02:08:40.113Z,3.97
2023-05-09T02:11:08.436Z,3.80
2023-05-09T02:13:38.398Z,3.50
2023-05-09T02:16:09.294Z,4.27
2023-05-09T02:18:37.386Z,3.33
2023-05-09T02:21:07.432Z,3.90
2023-05-09T02:23:35.973Z,3.30
2023-05-09T02:26:05.979Z,3.43
2023-05-09T02:28:35.447Z,4.00
2023-05-09T02:31:07.035Z,3.37
2023-05-09T02:33:37.892Z,3.70
2023-05-09T02:36:09.656Z,3.60
2023-05-09T02:38:37.951Z,3.40
2023-05-09T02:41:06.081Z,3.30
2023-05-09T02:43:34.220Z,3.37
2023-05-09T02:46:03.116Z,3.63
2023-05-09T02:48:30.880Z,3.93
2023-05-09T02:50:58.864Z,3.37
2023-05-09T02:53:28.497Z,3.70
2023-05-09T02:55:56.304Z,3.30
2023-05-09T02:58:24.111Z,3.30
2023-05-09T03:00:53.430Z,3.23
2023-05-09T03:03:22.212Z,3.20
2023-05-09T03:05:50.536Z,3.47
2023-05-09T03:08:18.567Z,3.87
2023-05-09T03:10:47.838Z,3.50
2023-05-09T03:13:15.855Z,3.40
2023-05-09T03:15:43.618Z,3.60
2023-05-09T03:18:11.987Z,3.23
2023-05-09T03:20:39.705Z,3.50
2023-05-09T03:23:07.459Z,3.60
2023-05-09T03:25:35.448Z,3.50
2023-05-09T03:28:04.722Z,3.60
2023-05-09T03:30:33.629Z,3.60
2023-05-09T03:33:01.705Z,3.63
2023-05-09T03:35:29.527Z,3.80
2023-05-09T03:37:57.220Z,3.80
2023-05-09T03:40:25.177Z,3.90
2023-05-09T03:42:53.082Z,4.10
2023-05-09T03:45:22.808Z,4.13
2023-05-09T03:47:50.499Z,4.40
2023-05-09T03:50:19.471Z,4.20
2023-05-09T03:52:47.605Z,4.60
2023-05-09T03:55:15.801Z,4.47
2023-05-09T03:57:43.758Z,4.47
2023-05-09T04:00:12.573Z,4.30
2023-05-09T04:02:42.468Z,4.23
2023-05-09T04:05:10.836Z,4.30
2023-05-09T04:07:38.751Z,4.83
2023-05-09T04:10:08.043Z,4.60
2023-05-09T04:12:35.944Z,4.77
2023-05-09T04:15:03.697Z,4.80
2023-05-09T04:17:31.829Z,4.40
2023-05-09T04:20:01.347Z,4.93
2023-05-09T04:22:29.196Z,5.10
2023-05-09T04:24:57.338Z,5.17
2023-05-09T04:27:25.861Z,4.90
2023-05-09T04:29:54.581Z,5.00
2023-05-09T04:32:23.410Z,5.10
2023-05-09T04:34:52.432Z,5.20
2023-05-09T04:37:22.065Z,5.30
2023-05-09T04:39:49.880Z,5.93
2023-05-09T04:42:17.713Z,5.60
2023-05-09T04:44:45.993Z,5.30
2023-05-09T04:47:13.639Z,5.17
2023-05-09T04:49:41.477Z,5.93
2023-05-09T04:52:09.186Z,5.17
2023-05-09T04:54:38.477Z,6.03
2023-05-09T04:57:17.463Z,5.43
2023-05-09T04:59:47.426Z,6.60
2023-05-09T05:02:15.889Z,5.90
2023-05-09T05:04:43.965Z,5.80
2023-05-09T05:07:11.815Z,6.57
2023-05-09T05:09:41.714Z,6.20
2023-05-09T05:12:09.985Z,6.13
2023-05-09T05:14:38.175Z,6.30
2023-05-09T05:17:07.144Z,6.20
2023-05-09T05:19:35.348Z,6.43
2023-05-09T05:22:03.979Z,6.53
2023-05-09T05:24:31.967Z,6.17
2023-05-09T05:27:01.444Z,6.47
2023-05-09T05:29:29.429Z,7.00
2023-05-09T05:31:57.342Z,6.80
2023-05-09T05:34:25.260Z,6.37
2023-05-09T05:36:53.088Z,6.10
2023-05-09T05:39:21.371Z,6.07
2023-05-09T05:41:49.218Z,6.13
2023-05-09T05:44:18.799Z,6.70
2023-05-09T05:46:46.508Z,6.17
2023-05-09T05:49:14.912Z,7.00
2023-05-09T05:51:44.496Z,6.50
2023-05-09T05:54:12.962Z,6.60
2023-05-09T05:56:40.946Z,6.20
2023-05-09T05:59:10.709Z,6.03
2023-05-09T06:01:41.413Z,6.33
2023-05-09T06:04:10.588Z,7.03
2023-05-09T06:06:38.385Z,6.87
2023-05-09T06:09:08.148Z,6.57
2023-05-09T06:11:35.986Z,7.77
2023-05-09T06:14:04.183Z,8.17
2023-05-09T06:16:32.930Z,7.30
2023-05-09T06:19:12.204Z,7.60
2023-05-09T06:21:41.034Z,8.27
2023-05-09T06:24:16.693Z,7.73
2023-05-09T06:26:51.623Z,7.87
2023-05-09T06:29:21.075Z,8.60
2023-05-09T06:31:49.074Z,7.60
2023-05-09T06:34:18.360Z,8.33
2023-05-09T06:36:46.088Z,9.23
2023-05-09T06:39:13.974Z,8.30
2023-05-09T06:41:43.240Z,7.87
2023-05-09T06:44:11.045Z,8.87
2023-05-09T06:46:39.353Z,8.80
2023-05-09T06:49:07.595Z,8.70
2023-05-09T06:51:38.234Z,8.80
2023-05-09T06:54:06.107Z,9.73
2023-05-09T06:56:33.844Z,9.63
2023-05-09T06:59:03.322Z,8.47
2023-05-09T07:01:31.112Z,9.17
2023-05-09T07:03:59.719Z,8.83
2023-05-09T07:06:27.428Z,9.57
2023-05-09T07:08:56.852Z,9.40
2023-05-09T07:11:24.695Z,9.40
2023-05-09T07:13:52.788Z,9.33
2023-05-09T07:16:23.165Z,9.70
2023-05-09T07:18:52.419Z,9.50
2023-05-09T07:21:22.335Z,9.73
2023-05-09T07:23:51.425Z,8.83
2023-05-09T07:26:22.565Z,9.67
2023-05-09T07:28:50.427Z,9.20
2023-05-09T07:31:18.148Z,9.70
2023-05-09T07:33:45.923Z,9.57
2023-05-09T07:36:14.781Z,8.53
2023-05-09T07:38:44.100Z,8.63
2023-05-09T07:41:12.148Z,8.70
2023-05-09T07:43:41.910Z,9.40
2023-05-09T07:46:10.531Z,9.50
2023-05-09T07:48:38.480Z,8.53
2023-05-09T07:51:06.302Z,7.67
2023-05-09T07:53:34.190Z,8.47
2023-05-09T07:56:01.983Z,9.47
2023-05-09T07:58:29.875Z,8.50
2023-05-09T08:01:00.177Z,8.30
2023-05-09T08:03:28.271Z,8.33
2023-05-09T08:05:56.536Z,8.30
2023-05-09T08:08:25.592Z,8.33
2023-05-09T08:10:53.609Z,7.17
2023-05-09T08:13:22.755Z,7.23
2023-05-09T08:15:55.118Z,7.07
2023-05-09T08:18:24.609Z,6.63
2023-05-09T08:20:52.441Z,7.33
2023-05-09T08:23:22.021Z,7.30
2023-05-09T08:25:54.367Z,7.27
2023-05-09T08:28:24.257Z,7.13
2023-05-09T08:30:53.539Z,7.27
2023-05-09T08:33:21.366Z,7.83
2023-05-09T08:35:53.462Z,8.00
2023-05-09T08:38:22.111Z,6.80
2023-05-09T08:40:49.761Z,7.07
2023-05-09T08:43:19.260Z,8.00
2023-05-09T08:45:49.244Z,6.93
2023-05-09T08:48:18.074Z,8.00
2023-05-09T08:50:46.643Z,7.40
2023-05-09T08:53:16.248Z,8.07
2023-05-09T08:55:44.008Z,7.50
2023-05-09T08:58:12.496Z,7.70
2023-05-09T09:00:42.407Z,7.30
2023-05-09T09:03:11.673Z,7.33
2023-05-09T09:05:43.946Z,7.20
2023-05-09T09:08:12.786Z,7.37
2023-05-09T09:10:47.730Z,7.37
2023-05-09T09:13:17.458Z,7.57
2023-05-09T09:15:49.743Z,7.30
2023-05-09T09:18:22.466Z,7.80
2023-05-09T09:20:57.922Z,7.60
2023-05-09T09:23:27.930Z,7.20
2023-05-09T09:26:02.114Z,7.67
2023-05-09T09:28:30.060Z,7.30
2023-05-09T09:30:58.130Z,7.07
2023-05-09T09:33:27.932Z,7.20
2023-05-09T09:35:56.989Z,7.13
2023-05-09T09:38:26.842Z,7.53
2023-05-09T09:40:56.824Z,6.60
2023-05-09T09:43:33.276Z,6.90
2023-05-09T09:46:03.263Z,6.63
2023-05-09T09:48:33.788Z,6.50
2023-05-09T09:51:11.143Z,7.30
2023-05-09T09:53:42.236Z,6.93
2023-05-09T09:56:12.568Z,6.87
2023-05-09T09:58:42.299Z,7.40
2023-05-09T10:01:13.879Z,6.03
2023-05-09T10:03:44.035Z,6.07
2023-05-09T10:06:13.365Z,7.07
2023-05-09T10:08:41.529Z,6.80
2023-05-09T10:11:11.254Z,6.90
2023-05-09T10:13:39.875Z,6.67
2023-05-09T10:16:10.198Z,5.97
2023-05-09T10:18:40.826Z,6.13
2023-05-09T10:21:11.771Z,7.10
2023-05-09T10:23:43.891Z,6.77
2023-05-09T10:26:19.173Z,6.70
2023-05-09T10:28:49.094Z,6.50
2023-05-09T10:31:23.716Z,6.43
2023-05-09T10:33:52.759Z,6.80
2023-05-09T10:36:23.241Z,6.60
2023-05-09T10:38:52.884Z,6.87
2023-05-09T10:41:22.156Z,6.00
2023-05-09T10:43:50.628Z,6.37
2023-05-09T10:46:20.488Z,5.87
2023-05-09T10:48:49.396Z,6.65
2023-05-09T10:51:18.179Z,5.37
2023-05-09T10:53:48.147Z,5.60
2023-05-09T10:56:26.466Z,5.37
2023-05-09T10:58:54.664Z,5.03
2023-05-09T11:01:39.923Z,4.70
2023-05-09T11:04:13.073Z,5.07
2023-05-09T11:06:49.550Z,4.70
2023-05-09T11:09:26.559Z,4.80
2023-05-09T11:11:56.470Z,4.70
2023-05-09T11:14:32.168Z,5.60
2023-05-09T11:17:04.607Z,4.60
2023-05-09T11:19:37.121Z,4.30
2023-05-09T11:22:14.806Z,4.10
2023-05-09T11:24:49.059Z,4.30
2023-05-09T11:27:17.965Z,4.65
2023-05-09T11:29:47.371Z,4.05
2023-05-09T11:32:18.603Z,4.60
2023-05-09T11:34:47.424Z,4.30
2023-05-09T11:37:18.103Z,4.33
2023-05-09T11:39:59.661Z,4.10
2023-05-09T11:42:29.042Z,4.93
2023-05-09T11:44:58.027Z,4.10
2023-05-09T11:47:29.017Z,4.53
2023-05-09T11:49:56.873Z,5.43
2023-05-09T11:52:25.781Z,4.43
2023-05-09T11:54:53.361Z,4.47
2023-05-09T11:57:22.284Z,4.47
2023-05-09T11:59:50.501Z,4.47
2023-05-09T12:02:18.341Z,4.80
2023-05-09T12:04:47.690Z,4.65
2023-05-09T12:07:17.343Z,4.77
2023-05-09T12:09:45.253Z,4.75
2023-05-09T12:12:15.120Z,4.55
2023-05-09T12:14:43.099Z,4.17
2023-05-09T12:17:10.805Z,4.25
2023-05-09T12:19:38.447Z,3.92
2023-05-09T12:22:07.760Z,3.60
2023-05-09T12:24:37.590Z,4.10
2023-05-09T12:27:08.023Z,3.35
2023-05-09T12:29:36.472Z,3.40
2023-05-09T12:32:04.225Z,3.00
2023-05-09T12:34:32.652Z,3.20
2023-05-09T12:37:03.642Z,3.38
2023-05-09T12:39:33.802Z,3.33
2023-05-09T12:42:02.254Z,3.15
2023-05-09T12:44:30.383Z,2.80
2023-05-09T12:46:59.955Z,2.83
2023-05-09T12:49:28.416Z,2.92
2023-05-09T12:51:58.190Z,3.10
2023-05-09T12:54:27.496Z,3.00
2023-05-09T12:56:59.842Z,3.40
2023-05-09T12:59:29.074Z,3.10
2023-05-09T13:01:58.768Z,3.35
2023-05-09T13:04:28.994Z,3.10
2023-05-09T13:07:00.000Z,3.50
2023-05-09T13:09:28.976Z,3.17
2023-05-09T13:11:59.467Z,3.00
2023-05-09T13:14:28.106Z,2.92
2023-05-09T13:16:55.893Z,3.20
2023-05-09T13:19:23.586Z,3.10
2023-05-09T13:21:52.378Z,3.00
2023-05-09T13:24:20.966Z,2.95
2023-05-09T13:26:48.769Z,3.22
2023-05-09T13:29:22.475Z,3.00
2023-05-09T13:31:51.063Z,3.03
2023-05-09T13:34:18.736Z,3.35
2023-05-09T13:36:46.407Z,3.25
2023-05-09T13:39:15.206Z,3.25
2023-05-09T13:41:43.172Z,3.17
2023-05-09T13:44:11.140Z,3.28
2023-05-09T13:46:43.250Z,3.35
2023-05-09T13:49:12.463Z,3.40
2023-05-09T13:51:40.412Z,3.50
2023-05-09T13:54:13.542Z,3.87
2023-05-09T13:56:42.666Z,3.47
2023-05-09T13:59:10.896Z,3.60
2023-05-09T14:01:40.806Z,4.43
2023-05-09T14:04:08.795Z,5.50
2023-05-09T14:06:38.510Z,5.43
2023-05-09T14:09:07.260Z,5.93
2023-05-09T14:11:36.191Z,5.50
2023-05-09T14:14:04.111Z,5.50
2023-05-09T14:16:32.837Z,5.20
2023-05-09T14:19:02.098Z,4.83
2023-05-09T14:21:31.452Z,4.43
2023-05-09T14:23:59.160Z,5.10
2023-05-09T14:26:29.715Z,5.40
2023-05-09T14:28:58.529Z,5.17
2023-05-09T14:31:26.288Z,4.97
2023-05-09T14:33:54.572Z,5.23
2023-05-09T14:36:25.602Z,4.90
2023-05-09T14:38:53.595Z,5.20
2023-05-09T14:41:22.834Z,5.03
2023-05-09T14:43:52.379Z,4.87
2023-05-09T14:46:20.987Z,4.63
2023-05-09T14:48:50.995Z,4.30
2023-05-09T14:51:19.351Z,4.27
2023-05-09T14:53:49.063Z,4.40
2023-05-09T14:56:17.030Z,4.50
2023-05-09T14:58:44.774Z,4.57
2023-05-09T15:01:13.255Z,5.00
2023-05-09T15:03:41.325Z,4.83
2023-05-09T15:06:09.137Z,4.37
2023-05-09T15:08:38.760Z,4.67
2023-05-09T15:11:08.156Z,4.10
2023-05-09T15:13:36.137Z,3.43
2023-05-09T15:16:06.126Z,3.90
2023-05-09T15:18:34.400Z,3.30
2023-05-09T15:21:03.438Z,3.27
2023-05-09T15:23:31.311Z,3.30
2023-05-09T15:25:59.652Z,3.30
2023-05-09T15:28:29.209Z,3.03
2023-05-09T15:30:58.017Z,2.90
2023-05-09T15:33:27.051Z,3.03
2023-05-09T15:35:59.548Z,3.00
2023-05-09T15:38:27.903Z,3.63
2023-05-09T15:40:55.824Z,3.50
2023-05-09T15:43:24.321Z,3.13
2023-05-09T15:45:53.505Z,3.87
2023-05-09T15:48:21.195Z,3.70
2023-05-09T15:50:49.093Z,4.47
2023-05-09T15:53:17.291Z,3.93
2023-05-09T15:55:45.538Z,4.50
2023-05-09T15:58:14.234Z,3.70
2023-05-09T16:00:42.118Z,4.37
2023-05-09T16:03:11.970Z,4.53
2023-05-09T16:05:41.156Z,3.67
2023-05-09T16:08:09.109Z,4.57
2023-05-09T16:10:37.051Z,4.57
2023-05-09T16:13:05.715Z,3.73
2023-05-09T16:15:34.091Z,3.80
2023-05-09T16:18:02.417Z,3.47
2023-05-09T16:20:32.639Z,4.40
2023-05-09T16:23:00.346Z,4.47
2023-05-09T16:25:28.657Z,4.87
2023-05-09T16:27:56.271Z,4.70
2023-05-09T16:30:23.989Z,4.77
2023-05-09T16:32:52.817Z,4.47
2023-05-09T16:35:20.578Z,4.30
2023-05-09T16:37:51.691Z,4.93
2023-05-09T16:40:20.029Z,4.63
2023-05-09T16:42:48.074Z,4.00
2023-05-09T16:45:16.146Z,4.40
2023-05-09T16:47:43.835Z,4.00
2023-05-09T16:50:12.524Z,4.50
2023-05-09T16:52:40.718Z,4.27
2023-05-09T16:55:11.149Z,4.30
2023-05-09T16:57:39.120Z,4.80
2023-05-09T17:00:10.990Z,4.27
2023-05-09T17:02:38.727Z,4.67
2023-05-09T17:05:07.813Z,5.20
2023-05-09T17:07:35.655Z,5.87
2023-05-09T17:10:03.984Z,5.97
2023-05-09T17:12:33.645Z,5.47
2023-05-09T17:15:01.383Z,5.60
2023-05-09T17:17:29.077Z,6.37
2023-05-09T17:19:57.652Z,5.83
2023-05-09T17:22:27.205Z,5.90
2023-05-09T17:24:59.862Z,5.73
2023-05-09T17:27:27.922Z,5.60
2023-05-09T17:29:57.694Z,4.90
2023-05-09T17:32:26.028Z,4.37
2023-05-09T17:34:54.458Z,3.77
2023-05-09T17:37:22.398Z,4.60
2023-05-09T17:39:51.578Z,4.77
2023-05-09T17:42:19.291Z,4.40
2023-05-09T17:44:47.328Z,4.70
2023-05-09T17:47:19.616Z,4.10
2023-05-09T17:49:47.370Z,4.67
2023-05-09T17:52:15.528Z,4.90
2023-05-09T17:54:45.717Z,4.40
2023-05-09T17:57:13.819Z,4.00
2023-05-09T17:59:41.793Z,4.70
2023-05-09T18:02:29.797Z,5.20
2023-05-09T18:05:18.334Z,4.30
2023-05-09T18:08:06.626Z,4.20
2023-05-09T18:10:55.328Z,4.77
2023-05-09T18:13:43.420Z,3.90
2023-05-09T18:16:31.541Z,4.20
2023-05-09T18:19:21.713Z,4.30
2023-05-09T18:22:10.337Z,3.93
2023-05-09T18:24:38.038Z,4.40
2023-05-09T18:27:05.980Z,4.70
2023-05-09T18:29:36.103Z,4.70
2023-05-09T18:32:04.417Z,4.70
2023-05-09T18:34:34.705Z,4.30
2023-05-09T18:37:02.527Z,4.40
2023-05-09T18:39:30.396Z,4.20
2023-05-09T18:41:58.351Z,4.00
2023-05-09T18:44:26.161Z,4.10
2023-05-09T18:46:54.102Z,4.67
2023-05-09T18:49:22.679Z,4.43
2023-05-09T18:51:52.095Z,4.43
2023-05-09T18:54:20.101Z,4.70
2023-05-09T18:56:48.286Z,4.70
2023-05-09T18:59:17.334Z,5.23
2023-05-09T19:01:45.120Z,5.60
2023-05-09T19:04:15.014Z,5.60
2023-05-09T19:06:43.005Z,5.40
2023-05-09T19:09:13.480Z,6.23
2023-05-09T19:11:42.761Z,5.73
2023-05-09T19:14:10.462Z,6.97
2023-05-09T19:16:38.276Z,6.57
2023-05-09T19:19:06.283Z,8.57
2023-05-09T19:21:37.045Z,7.33
2023-05-09T19:24:06.346Z,7.73
2023-05-09T19:26:35.655Z,8.10
2023-05-09T19:29:08.336Z,7.30
2023-05-09T19:31:37.791Z,8.90
2023-05-09T19:34:06.191Z,7.73
2023-05-09T19:36:34.526Z,6.80
2023-05-09T19:39:02.623Z,7.03
2023-05-09T19:41:30.400Z,8.10
2023-05-09T19:43:59.806Z,8.77
2023-05-09T19:46:27.505Z,7.80
2023-05-09T19:48:55.525Z,5.70
2023-05-09T19:51:23.177Z,7.90
2023-05-09T19:53:51.274Z,5.70
2023-05-09T19:56:19.121Z,5.73
2023-05-09T19:58:49.724Z,5.97
2023-05-09T20:01:23.257Z,5.30
2023-05-09T20:03:52.610Z,6.43
2023-05-09T20:06:20.916Z,5.67
2023-05-09T20:08:51.736Z,6.00
2023-05-09T20:11:19.506Z,6.27
2023-05-09T20:13:51.869Z,5.93
2023-05-09T20:16:21.515Z,5.87
2023-05-09T20:18:51.956Z,5.80
2023-05-09T20:21:19.923Z,5.50
2023-05-09T20:23:47.678Z,5.57
2023-05-09T20:26:15.771Z,4.93
2023-05-09T20:28:43.535Z,4.80
2023-05-09T20:31:11.272Z,4.77
2023-05-09T20:33:41.176Z,5.00
2023-05-09T20:36:09.750Z,5.37
2023-05-09T20:38:37.464Z,5.30
2023-05-09T20:41:05.900Z,5.20
2023-05-09T20:43:33.940Z,5.27
2023-05-09T20:46:01.986Z,4.30
2023-05-09T20:48:30.334Z,4.27
2023-05-09T20:50:59.703Z,4.67
2023-05-09T20:53:31.246Z,4.47
2023-05-09T20:56:01.011Z,4.83
2023-05-09T20:58:34.250Z,4.53
2023-05-09T21:01:02.240Z,4.40
2023-05-09T21:03:30.509Z,5.03
2023-05-09T21:06:00.671Z,4.60
2023-05-09T21:08:28.782Z,4.50
2023-05-09T21:10:56.766Z,5.43
2023-05-09T21:13:24.611Z,4.27
2023-05-09T21:15:52.368Z,4.20
2023-05-09T21:18:20.503Z,4.90
2023-05-09T21:20:48.196Z,4.10
2023-05-09T21:23:18.571Z,4.67
2023-05-09T21:25:46.466Z,4.37
2023-05-09T21:28:15.638Z,4.80
2023-05-09T21:30:43.831Z,4.80
2023-05-09T21:33:14.561Z,4.47
2023-05-09T21:35:43.740Z,4.30
2023-05-09T21:38:13.098Z,4.90
2023-05-09T21:40:42.618Z,4.57
2023-05-09T21:43:10.471Z,4.27
2023-05-09T21:45:38.592Z,4.60
2023-05-09T21:48:07.144Z,5.57
2023-05-09T21:50:35.170Z,4.90
2023-05-09T21:53:03.762Z,4.93
2023-05-09T21:55:31.760Z,5.57
2023-05-09T21:58:01.049Z,5.37
2023-05-09T22:00:29.203Z,4.50
2023-05-09T22:02:57.180Z,4.87
2023-05-09T22:05:25.623Z,5.50
2023-05-09T22:07:53.349Z,4.83
2023-05-09T22:10:21.182Z,4.40
2023-05-09T22:12:48.902Z,5.53
2023-05-09T22:15:19.582Z,5.23
2023-05-09T22:17:47.391Z,5.00
2023-05-09T22:20:15.555Z,5.07
2023-05-09T22:22:43.422Z,4.43
2023-05-09T22:25:11.720Z,5.07
2023-05-09T22:27:39.997Z,4.47
2023-05-09T22:30:09.428Z,5.20
2023-05-09T22:32:39.018Z,5.33
2023-05-09T22:35:07.507Z,4.83
2023-05-09T22:37:35.508Z,4.80
2023-05-09T22:40:04.026Z,4.47
2023-05-09T22:42:32.605Z,4.93
2023-05-09T22:45:00.528Z,4.37
2023-05-09T22:47:29.113Z,4.70
2023-05-09T22:49:58.685Z,5.10
2023-05-09T22:52:26.627Z,4.33
2023-05-09T22:54:54.420Z,4.57
2023-05-09T22:57:23.726Z,4.60
2023-05-09T22:59:51.518Z,5.00
2023-05-09T23:02:19.985Z,4.90
2023-05-09T23:04:47.801Z,4.53
2023-05-09T23:07:16.994Z,4.70
2023-05-09T23:09:44.751Z,5.07
2023-05-09T23:12:12.710Z,4.37
2023-05-09T23:14:40.489Z,4.90
2023-05-09T23:17:08.328Z,5.30
2023-05-09T23:19:36.300Z,5.03
2023-05-09T23:22:04.815Z,4.73
2023-05-09T23:24:34.092Z,4.50
2023-05-09T23:27:02.494Z,5.10
2023-05-09T23:29:30.487Z,5.07
2023-05-09T23:31:58.360Z,5.63
2023-05-09T23:34:26.408Z,4.83
2023-05-09T23:36:54.438Z,5.30
2023-05-09T23:39:22.545Z,5.30
2023-05-09T23:41:52.200Z,5.13
2023-05-09T23:44:20.038Z,5.07
2023-05-09T23:46:47.964Z,5.47
2023-05-09T23:49:16.022Z,5.23
2023-05-09T23:51:43.873Z,5.37
2023-05-09T23:54:11.812Z,4.80
2023-05-09T23:56:39.714Z,5.00
2023-05-09T23:59:09.207Z,5.30
